AKN - King Salmon

Pirep is a free, collaborative database of all public and private airports located within the United States. All pilots are welcome to contribute, edit, and improve any airport they have local knowledge about, no registration required.
Are you familiar with this airport? Help out other pilots by adding your local knowledge.
Uploaded photos will be licensed under a CC BY-SA 4.0 license. Please only upload photos you have the rights to use.
Tags
Public
Undocu­mented
METAR / TAF
Webcam
Edit Tags
Food
Camping
Lodging
Car Rental
Bicycles
Swimming
Golfing
Fishing
Hot Springs
Museum
Flying Clubs
Airpark
Upcoming Events
No upcoming events. Is anything happening here soon?
*
*
*

Where exactly on/near the airport is this event taking place?

Is there a webpage with more information for this event?

Who should be contacted for more information?

What is this event all about?

Repeat every
Description
Transient Parking
Fuel Location
Landing & Tie-down Fees
Crew Car Availability
Flying Clubs
WiFi Access
Airport Statistics
Location: King Salmon, AK
Elevation: 73ft
Sectional: Kodiak
Activation date: Aug 1954
Fuel: 100LL, A (prices)
Runway 12/30: 8,901ft
Runway 18/36: 4,017ft
Runway NW/SE: 4,000ft
Access: Open to the public
Current Weather — VFR
  • Weather data is strictly informational and not for flight planning purposes.
  • METAR
    2024-05-26 03:54:00 AKDT
    Ceiling Wind Temperature Dewpoint Weather Visbility
    6,000ft 280° @ 5kt 44°F 39°F N/A 10SM
    Clouds: Scattered @ 4,300ft, Overcast @ 6,000ft
    Raw: PAKN 261154Z 28005KT 10SM SCT043 OVC060 07/04 A2966 RMK AO2 RAE12 SLP044 P0000 60000 7//// T00670044 10094 20061 57003 $
  • TAF
    2024-05-26 04:00:00 AKDT – 2024-05-26 10:00:00 AKDT
    Ceiling Wind Weather Visbility
    4,000ft 280° @ 7kt Showers in vicinity 6SM
    Clouds: Broken @ 4,000ft, Overcast @ 5,000ft
    Raw: PAKN 261135Z 2612/2712 28007KT P6SM VCSH BKN040 OVC050 FM261800 35011KT P6SM BKN050
  • TAF
    2024-05-26 10:00:00 AKDT – 2024-05-27 04:00:00 AKDT
    Ceiling Wind Weather Visbility
    5,000ft 350° @ 11kt N/A 6SM
    Clouds: Broken @ 5,000ft
    Raw: PAKN 261135Z 2612/2712 28007KT P6SM VCSH BKN040 OVC050 FM261800 35011KT P6SM BKN050
Click/tap to add an annotation marker to the map
Direct links to live image URLs will be displayed inline on this page. URLs to separate webpages will be linked to.
URL:
Direct links to live image URLs will be displayed inline on this page. URLs to separate webpages will be linked to.
URL:
Remarks
  • Ctaf 352.05. freq 121.9 simulcast with 352.05.
  • Arff equip staffed durg acr act only.
  • Clsd to acr ops with more than 30 pax seats exc ppr in writing - amgr po box 65 king salmon ak 99613.
  • Flocks of lrg birds invof durg season.
  • Off pavement ops by acft & hel na at acr apron. lndg, tkof or prkg fm dirt or grass na.
Comments
Leave a comment What was your experience like at this airport?